createdAt,value
2022-08-09T00:01:54.072Z,100870.50
2022-08-09T00:05:03.604Z,100875.06
2022-08-09T00:08:31.834Z,100868.69
2022-08-09T00:12:02.518Z,100864.09
2022-08-09T00:15:06.755Z,100867.59
2022-08-09T00:18:11.944Z,100866.53
2022-08-09T00:21:16.015Z,100865.44
2022-08-09T00:24:19.950Z,100873.44
2022-08-09T00:27:22.561Z,100864.37
2022-08-09T00:30:27.001Z,100861.59
2022-08-09T00:33:48.850Z,100865.22
2022-08-09T00:36:55.551Z,100870.63
2022-08-09T00:40:09.511Z,100865.31
2022-08-09T00:44:11.081Z,100862.56
2022-08-09T00:46:56.550Z,100861.69
2022-08-09T00:50:06.062Z,100866.22
2022-08-09T00:53:18.299Z,100872.53
2022-08-09T00:56:27.394Z,100872.56
2022-08-09T00:59:41.195Z,100864.41
2022-08-09T01:02:53.023Z,100868.03
2022-08-09T01:06:03.902Z,100868.06
2022-08-09T01:09:36.563Z,100861.69
2022-08-09T01:12:49.479Z,100858.13
2022-08-09T01:15:58.470Z,100860.91
2022-08-09T01:19:16.984Z,100861.09
2022-08-09T01:23:12.482Z,100857.69
2022-08-09T01:27:01.108Z,100859.66
2022-08-09T01:30:06.657Z,100857.78
2022-08-09T01:33:11.822Z,100857.75
2022-08-09T01:36:19.985Z,100864.16
2022-08-09T01:40:23.275Z,100863.16
2022-08-09T01:43:50.014Z,100866.78
2022-08-09T01:46:54.515Z,100874.00
2022-08-09T01:49:58.195Z,100879.94
2022-08-09T01:53:01.893Z,100869.88
2022-08-09T01:56:23.934Z,100865.53
2022-08-09T01:59:32.339Z,100869.25
2022-08-09T02:02:42.192Z,100865.81
2022-08-09T02:06:03.793Z,100870.31
2022-08-09T02:09:10.440Z,100876.72
2022-08-09T02:12:21.364Z,100866.97
2022-08-09T02:15:27.005Z,100868.69
2022-08-09T02:18:49.028Z,100871.50
2022-08-09T02:21:55.986Z,100865.22
2022-08-09T02:25:00.872Z,100875.22
2022-08-09T02:28:17.774Z,100863.47
2022-08-09T02:31:22.794Z,100855.50
2022-08-09T02:34:40.542Z,100861.00
2022-08-09T02:37:58.618Z,100860.09
2022-08-09T02:41:16.812Z,100859.28
2022-08-09T02:44:30.200Z,100853.97
2022-08-09T02:47:46.354Z,100850.44
2022-08-09T02:50:59.434Z,100859.50
2022-08-09T02:54:06.489Z,100863.28
2022-08-09T02:57:14.047Z,100865.22
2022-08-09T03:00:27.248Z,100863.53
2022-08-09T03:03:37.161Z,100859.09
2022-08-09T03:06:57.028Z,100863.63
2022-08-09T03:10:03.927Z,100865.56
2022-08-09T03:13:08.600Z,100872.91
2022-08-09T03:16:19.333Z,100862.22
2022-08-09T03:19:58.170Z,100869.44
2022-08-09T03:22:57.042Z,100859.63
2022-08-09T03:26:04.688Z,100860.59
2022-08-09T03:29:09.781Z,100858.00
2022-08-09T03:32:16.692Z,100858.03
2022-08-09T03:35:24.696Z,100858.13
2022-08-09T03:38:45.393Z,100865.38
2022-08-09T03:41:48.767Z,100859.09
2022-08-09T03:44:51.518Z,100864.56
2022-08-09T03:47:54.344Z,100872.69
2022-08-09T03:50:57.032Z,100870.03
2022-08-09T03:54:01.944Z,100858.28
2022-08-09T03:57:17.867Z,100864.59
2022-08-09T04:00:22.402Z,100858.31
2022-08-09T04:03:45.802Z,100868.25
2022-08-09T04:06:51.557Z,100860.16
2022-08-09T04:09:56.054Z,100856.44
2022-08-09T04:13:11.530Z,100858.25
2022-08-09T04:16:19.633Z,100856.38
2022-08-09T04:19:30.339Z,100857.19
2022-08-09T04:22:46.529Z,100856.94
2022-08-09T04:25:51.962Z,100868.47
2022-08-09T04:28:58.293Z,100861.09
2022-08-09T04:32:03.299Z,100856.41
2022-08-09T04:35:12.588Z,100860.78
2022-08-09T04:38:15.543Z,100859.66
2022-08-09T04:41:23.592Z,100856.44
2022-08-09T04:44:27.141Z,100854.59
2022-08-09T04:47:45.097Z,100850.16
2022-08-09T04:50:53.209Z,100851.34
2022-08-09T04:53:58.616Z,100865.94
2022-08-09T04:57:01.283Z,100857.78
2022-08-09T05:00:07.700Z,100858.56
2022-08-09T05:03:30.633Z,100855.66
2022-08-09T05:06:35.719Z,100858.03
2022-08-09T05:09:45.452Z,100855.00
2022-08-09T05:12:53.191Z,100857.50
2022-08-09T05:15:56.668Z,100868.94
2022-08-09T05:19:00.722Z,100856.22
2022-08-09T05:22:05.384Z,100861.38
2022-08-09T05:25:32.548Z,100858.38
2022-08-09T05:28:35.331Z,100863.84
2022-08-09T05:31:47.452Z,100862.69
2022-08-09T05:34:54.806Z,100870.56
2022-08-09T05:37:58.789Z,100868.13
2022-08-09T05:41:01.435Z,100875.50
2022-08-09T05:44:04.387Z,100874.13
2022-08-09T05:47:07.968Z,100876.06
2022-08-09T05:50:25.765Z,100872.34
2022-08-09T05:53:37.259Z,100872.13
2022-08-09T05:56:56.929Z,100882.72
2022-08-09T05:59:59.587Z,100876.19
2022-08-09T06:03:03.907Z,100883.50
2022-08-09T06:06:14.051Z,100884.59
2022-08-09T06:09:41.199Z,100894.91
2022-08-09T06:12:39.668Z,100894.53
2022-08-09T06:15:45.011Z,100900.66
2022-08-09T06:18:49.898Z,100893.50
2022-08-09T06:21:58.866Z,100905.03
2022-08-09T06:25:01.915Z,100899.44
2022-08-09T06:28:05.542Z,100904.50
2022-08-09T06:31:09.021Z,100895.31
2022-08-09T06:34:11.525Z,100894.87
2022-08-09T06:37:14.350Z,100899.91
2022-08-09T06:40:23.903Z,100898.37
2022-08-09T06:43:27.377Z,100887.91
2022-08-09T06:46:39.525Z,100887.50
2022-08-09T06:50:11.917Z,100893.53
2022-08-09T06:53:06.625Z,100896.31
2022-08-09T06:56:09.735Z,100895.66
2022-08-09T07:00:49.993Z,100895.31
2022-08-09T07:02:36.775Z,100890.72
2022-08-09T07:06:02.350Z,100896.94
2022-08-09T07:09:04.599Z,100902.06
2022-08-09T07:12:07.204Z,100900.69
2022-08-09T07:16:39.460Z,100899.25
2022-08-09T07:18:39.743Z,100904.72
2022-08-09T07:21:57.638Z,100897.16
2022-08-09T07:25:01.902Z,100905.53
2022-08-09T07:28:09.566Z,100905.50
2022-08-09T07:31:24.010Z,100904.47
2022-08-09T07:34:26.962Z,100906.62
2022-08-09T07:37:29.547Z,100914.44
2022-08-09T07:41:00.486Z,100909.91
2022-08-09T07:43:56.702Z,100906.22
2022-08-09T07:46:59.643Z,100901.47
2022-08-09T07:50:08.666Z,100908.25
2022-08-09T07:53:12.621Z,100901.34
2022-08-09T07:56:27.003Z,100907.56
2022-08-09T07:59:34.335Z,100912.75
2022-08-09T08:02:48.620Z,100904.59
2022-08-09T08:05:58.165Z,100908.81
2022-08-09T08:09:07.825Z,100899.53
2022-08-09T08:12:27.845Z,100893.97
2022-08-09T08:15:37.543Z,100887.16
2022-08-09T08:18:40.787Z,100892.00
2022-08-09T08:21:52.501Z,100889.62
2022-08-09T08:24:57.491Z,100889.72
2022-08-09T08:28:00.216Z,100890.19
2022-08-09T08:31:13.984Z,100891.00
2022-08-09T08:34:25.313Z,100884.44
2022-08-09T08:37:41.200Z,100884.81
2022-08-09T08:40:53.230Z,100892.59
2022-08-09T08:44:00.566Z,100889.44
2022-08-09T08:47:12.954Z,100881.78
2022-08-09T08:50:18.169Z,100885.31
2022-08-09T08:53:22.304Z,100890.63
2022-08-09T08:56:28.468Z,100881.37
2022-08-09T08:59:46.538Z,100885.91
2022-08-09T09:02:52.717Z,100884.37
2022-08-09T09:05:59.763Z,100873.25
2022-08-09T09:09:20.788Z,100882.75
2022-08-09T09:12:34.416Z,100889.22
2022-08-09T09:15:38.863Z,100884.16
2022-08-09T09:18:48.076Z,100880.28
2022-08-09T09:22:04.956Z,100881.44
2022-08-09T09:26:02.305Z,100879.09
2022-08-09T09:28:39.190Z,100871.84
2022-08-09T09:32:03.947Z,100870.16
2022-08-09T09:35:17.857Z,100860.31
2022-08-09T09:38:27.904Z,100871.31
2022-08-09T09:41:49.681Z,100863.84
2022-08-09T09:44:59.127Z,100865.16
2022-08-09T09:48:03.671Z,100862.81
2022-08-09T09:51:07.632Z,100862.88
2022-08-09T09:54:23.587Z,100867.47
2022-08-09T09:58:00.542Z,100868.84
2022-08-09T10:00:55.148Z,100866.09
2022-08-09T10:04:04.371Z,100856.03
2022-08-09T10:08:11.070Z,100858.94
2022-08-09T10:11:53.774Z,100853.84
2022-08-09T10:14:48.551Z,100858.72
2022-08-09T10:17:56.524Z,100853.59
2022-08-09T10:21:10.201Z,100853.75
2022-08-09T10:24:16.034Z,100840.78
2022-08-09T10:27:34.534Z,100835.69
2022-08-09T10:32:07.140Z,100826.28
2022-08-09T10:34:10.710Z,100826.38
2022-08-09T10:37:24.989Z,100840.72
2022-08-09T10:40:35.081Z,100834.00
2022-08-09T10:43:46.830Z,100825.34
2022-08-09T10:46:57.808Z,100827.78
2022-08-09T10:50:49.206Z,100822.91
2022-08-09T10:53:58.487Z,100824.53
2022-08-09T10:57:15.821Z,100822.56
2022-08-09T11:00:41.579Z,100819.06
2022-08-09T11:04:27.766Z,100818.12
2022-08-09T11:07:57.085Z,100816.41
2022-08-09T11:10:56.342Z,100807.44
2022-08-09T11:14:28.944Z,100805.78
2022-08-09T11:17:34.805Z,100810.88
2022-08-09T11:20:49.659Z,100801.62
2022-08-09T11:23:59.498Z,100793.16
2022-08-09T11:28:04.367Z,100790.31
2022-08-09T11:31:52.647Z,100786.16
2022-08-09T11:34:57.356Z,100780.66
2022-08-09T11:38:16.350Z,100772.37
2022-08-09T11:41:37.557Z,100786.06
2022-08-09T11:44:46.297Z,100781.84
2022-08-09T11:47:51.316Z,100772.87
2022-08-09T11:53:00.573Z,100772.19
2022-08-09T11:54:27.990Z,100762.19
2022-08-09T11:57:47.575Z,100764.44
2022-08-09T12:01:37.819Z,100763.91
2022-08-09T12:04:37.531Z,100768.47
2022-08-09T12:07:42.323Z,100773.28
2022-08-09T12:10:53.951Z,100766.78
2022-08-09T12:14:07.845Z,100764.84
2022-08-09T12:17:27.584Z,100762.41
2022-08-09T12:20:42.185Z,100775.53
2022-08-09T12:23:58.068Z,100762.69
2022-08-09T12:29:10.223Z,100751.00
2022-08-09T12:30:43.704Z,100753.00
2022-08-09T12:33:58.493Z,100749.37
2022-08-09T12:37:22.313Z,100756.84
2022-08-09T12:40:27.428Z,100752.53
2022-08-09T12:44:05.929Z,100740.19
2022-08-09T12:46:53.113Z,100733.13
2022-08-09T12:50:14.373Z,100740.19
2022-08-09T12:53:37.619Z,100734.47
2022-08-09T12:56:53.774Z,100719.09
2022-08-09T13:00:34.480Z,100715.97
2022-08-09T13:03:53.142Z,100723.00
2022-08-09T13:07:10.417Z,100722.00
2022-08-09T13:10:13.370Z,100703.69
2022-08-09T13:13:29.143Z,100702.22
2022-08-09T13:17:04.089Z,100703.69
2022-08-09T13:20:14.049Z,100700.44
2022-08-09T13:24:16.966Z,100700.69
2022-08-09T13:27:06.026Z,100701.00
2022-08-09T13:30:50.280Z,100706.25
2022-08-09T13:33:53.165Z,100697.28
2022-08-09T13:36:58.483Z,100691.78
2022-08-09T13:41:55.004Z,100693.69
2022-08-09T13:43:35.632Z,100694.31
2022-08-09T13:47:16.643Z,100689.13
2022-08-09T13:50:08.722Z,100692.91
2022-08-09T13:53:16.657Z,100675.28
2022-08-09T13:56:19.488Z,100685.63
2022-08-09T13:59:25.267Z,100695.06
2022-08-09T14:02:28.391Z,100690.53
2022-08-09T14:05:58.172Z,100688.78
2022-08-09T14:08:54.273Z,100681.66
2022-08-09T14:12:00.590Z,100683.44
2022-08-09T14:16:07.193Z,100679.41
2022-08-09T14:18:33.102Z,100686.75
2022-08-09T14:21:35.697Z,100687.50
2022-08-09T14:24:47.126Z,100682.47
2022-08-09T14:27:58.796Z,100682.34
2022-08-09T14:31:01.872Z,100677.66
2022-08-09T14:34:08.135Z,100676.88
2022-08-09T14:37:11.189Z,100676.50
2022-08-09T14:40:13.872Z,100673.66
2022-08-09T14:43:18.542Z,100681.72
2022-08-09T14:46:58.275Z,100672.78
2022-08-09T14:50:01.444Z,100670.72
2022-08-09T14:53:12.052Z,100666.72
2022-08-09T14:56:15.204Z,100661.44
2022-08-09T14:59:17.776Z,100661.81
2022-08-09T15:02:24.043Z,100669.88
2022-08-09T15:05:26.633Z,100667.22
2022-08-09T15:08:30.346Z,100662.03
2022-08-09T15:11:33.586Z,100656.25
2022-08-09T15:14:38.179Z,100652.47
2022-08-09T15:17:46.082Z,100641.88
2022-08-09T15:21:57.233Z,100638.25
2022-08-09T15:24:19.166Z,100639.00
2022-08-09T15:27:27.342Z,100653.38
2022-08-09T15:30:48.699Z,100646.94
2022-08-09T15:34:16.261Z,100647.06
2022-08-09T15:37:37.371Z,100645.31
2022-08-09T15:40:44.267Z,100652.12
2022-08-09T15:43:46.926Z,100656.41
2022-08-09T15:46:49.795Z,100651.19
2022-08-09T15:50:00.706Z,100644.66
2022-08-09T15:53:18.871Z,100647.16
2022-08-09T15:56:31.269Z,100645.88
2022-08-09T15:59:36.953Z,100649.78
2022-08-09T16:02:40.238Z,100651.47
2022-08-09T16:05:53.083Z,100637.75
2022-08-09T16:09:00.985Z,100647.94
2022-08-09T16:12:06.293Z,100645.78
2022-08-09T16:16:04.697Z,100649.63
2022-08-09T16:18:37.117Z,100644.56
2022-08-09T16:21:52.065Z,100647.22
2022-08-09T16:24:59.518Z,100648.03
2022-08-09T16:28:04.228Z,100637.59
2022-08-09T16:31:15.983Z,100640.78
2022-08-09T16:34:18.891Z,100644.25
2022-08-09T16:37:54.527Z,100642.84
2022-08-09T16:40:49.375Z,100644.84
2022-08-09T16:43:52.848Z,100641.53
2022-08-09T16:47:03.825Z,100653.06
2022-08-09T16:50:29.071Z,100653.53
2022-08-09T16:53:32.227Z,100660.94
2022-08-09T16:56:37.165Z,100657.34
2022-08-09T16:59:57.516Z,100663.00
2022-08-09T17:03:00.967Z,100662.12
2022-08-09T17:06:29.167Z,100666.84
2022-08-09T17:09:46.068Z,100672.50
2022-08-09T17:12:49.746Z,100675.16
2022-08-09T17:15:59.811Z,100682.66
2022-08-09T17:19:05.271Z,100670.78
2022-08-09T17:22:08.248Z,100684.34
2022-08-09T17:25:12.521Z,100683.00
2022-08-09T17:28:15.487Z,100686.72
2022-08-09T17:31:20.647Z,100697.84
2022-08-09T17:35:10.667Z,100696.84
2022-08-09T17:38:02.401Z,100695.69
2022-08-09T17:41:10.753Z,100698.13
2022-08-09T17:44:42.441Z,100711.47
2022-08-09T17:47:49.464Z,100684.87
2022-08-09T17:50:56.385Z,100707.63
2022-08-09T17:54:02.756Z,100717.19
2022-08-09T17:57:07.904Z,100719.94
2022-08-09T18:00:33.601Z,100720.34
2022-08-09T18:03:47.362Z,100731.00
2022-08-09T18:06:54.940Z,100726.38
2022-08-09T18:10:04.165Z,100730.06
2022-08-09T18:13:39.662Z,100737.81
2022-08-09T18:16:32.692Z,100740.25
2022-08-09T18:20:55.246Z,100738.37
2022-08-09T18:23:04.666Z,100742.56
2022-08-09T18:26:07.953Z,100746.03
2022-08-09T18:30:41.261Z,100757.00
2022-08-09T18:32:34.430Z,100759.50
2022-08-09T18:35:59.900Z,100762.97
2022-08-09T18:39:02.134Z,100780.81
2022-08-09T18:42:08.789Z,100783.78
2022-08-09T18:45:21.744Z,100803.13
2022-08-09T18:48:34.829Z,100803.66
2022-08-09T18:51:57.561Z,100810.47
2022-08-09T18:55:00.962Z,100815.44
2022-08-09T18:58:03.699Z,100827.06
2022-08-09T19:01:07.441Z,100822.63
2022-08-09T19:04:10.550Z,100833.06
2022-08-09T19:07:13.372Z,100841.56
2022-08-09T19:10:19.298Z,100836.72
2022-08-09T19:13:38.101Z,100830.78
2022-08-09T19:16:50.180Z,100841.28
2022-08-09T19:19:58.601Z,100845.09
2022-08-09T19:23:05.553Z,100855.50
2022-08-09T19:26:11.521Z,100857.25
2022-08-09T19:29:20.524Z,100862.81
2022-08-09T19:32:26.599Z,100861.22
2022-08-09T19:35:58.252Z,100866.12
2022-08-09T19:38:55.433Z,100870.22
2022-08-09T19:41:58.348Z,100871.41
2022-08-09T19:45:01.266Z,100876.91
2022-08-09T19:48:04.059Z,100880.03
2022-08-09T19:51:07.928Z,100868.31
2022-08-09T19:54:10.657Z,100868.84
2022-08-09T19:57:16.564Z,100869.66
2022-08-09T20:00:20.129Z,100873.44
2022-08-09T20:04:10.094Z,100879.38
2022-08-09T20:06:45.766Z,100886.62
2022-08-09T20:09:48.951Z,100887.28
2022-08-09T20:12:51.957Z,100878.41
2022-08-09T20:16:36.349Z,100888.31
2022-08-09T20:19:49.544Z,100886.31
2022-08-09T20:22:44.716Z,100892.22
2022-08-09T20:25:52.243Z,100888.75
2022-08-09T20:28:56.088Z,100891.03
2022-08-09T20:32:28.880Z,100883.38
2022-08-09T20:35:21.857Z,100890.06
2022-08-09T20:38:30.249Z,100884.09
2022-08-09T20:41:40.539Z,100886.44
2022-08-09T20:44:50.767Z,100888.63
2022-08-09T20:48:06.861Z,100894.44
2022-08-09T20:51:16.889Z,100888.53
2022-08-09T20:54:22.629Z,100901.25
2022-08-09T20:57:32.114Z,100892.75
2022-08-09T21:00:35.874Z,100893.84
2022-08-09T21:05:48.993Z,100893.84
2022-08-09T21:07:13.798Z,100899.47
2022-08-09T21:10:17.813Z,100902.31
2022-08-09T21:13:21.683Z,100900.41
2022-08-09T21:16:28.266Z,100905.06
2022-08-09T21:20:17.335Z,100903.53
2022-08-09T21:22:56.343Z,100903.84
2022-08-09T21:26:00.276Z,100901.94
2022-08-09T21:29:02.903Z,100904.69
2022-08-09T21:32:18.743Z,100910.25
2022-08-09T21:35:22.026Z,100912.50
2022-08-09T21:38:31.183Z,100911.44
2022-08-09T21:42:04.301Z,100908.59
2022-08-09T21:44:57.731Z,100901.06
2022-08-09T21:48:00.323Z,100912.03
2022-08-09T21:51:03.420Z,100903.53
2022-08-09T21:54:05.973Z,100908.44
2022-08-09T21:57:25.494Z,100906.50
2022-08-09T22:00:33.622Z,100905.06
2022-08-09T22:03:36.679Z,100910.59
2022-08-09T22:06:59.008Z,100911.47
2022-08-09T22:10:06.901Z,100921.72
2022-08-09T22:13:11.510Z,100910.25
2022-08-09T22:16:14.895Z,100913.59
2022-08-09T22:19:23.952Z,100920.84
2022-08-09T22:22:40.819Z,100917.25
2022-08-09T22:26:07.135Z,100916.69
2022-08-09T22:29:09.247Z,100916.94
2022-08-09T22:32:20.024Z,100915.53
2022-08-09T22:36:01.897Z,100919.34
2022-08-09T22:38:54.925Z,100913.88
2022-08-09T22:41:57.852Z,100918.22
2022-08-09T22:48:18.405Z,100918.63
2022-08-09T22:48:35.879Z,100916.19
2022-08-09T22:51:49.185Z,100916.44
2022-08-09T22:54:52.198Z,100916.88
2022-08-09T22:57:59.973Z,100923.62
2022-08-09T23:01:05.657Z,100920.38
2022-08-09T23:04:08.553Z,100916.31
2022-08-09T23:08:21.237Z,100936.50
2022-08-09T23:10:53.586Z,100932.34
2022-08-09T23:13:56.438Z,100928.94
2022-08-09T23:16:58.965Z,100929.19
2022-08-09T23:20:07.882Z,100926.62
2022-08-09T23:23:10.925Z,100922.78
2022-08-09T23:26:13.730Z,100924.22
2022-08-09T23:29:17.894Z,100923.50
2022-08-09T23:32:20.757Z,100922.34
2022-08-09T23:35:23.500Z,100931.16
2022-08-09T23:38:26.519Z,100932.03
2022-08-09T23:41:29.806Z,100935.31
2022-08-09T23:44:32.859Z,100935.22
2022-08-09T23:47:35.378Z,100929.06
2022-08-09T23:50:38.236Z,100927.50
2022-08-09T23:53:40.732Z,100926.66
2022-08-09T23:56:54.898Z,100935.94
